createdAt,value
2022-09-23T00:00:47.311Z,63.31
2022-09-23T00:01:47.452Z,63.44
2022-09-23T00:02:47.506Z,63.41
2022-09-23T00:03:47.532Z,63.51
2022-09-23T00:04:47.644Z,63.44
2022-09-23T00:05:47.717Z,63.44
2022-09-23T00:06:47.776Z,63.44
2022-09-23T00:07:47.860Z,63.44
2022-09-23T00:08:47.934Z,63.44
2022-09-23T00:09:48.035Z,63.44
2022-09-23T00:10:48.129Z,63.44
2022-09-23T00:11:48.156Z,63.44
2022-09-23T00:12:48.276Z,63.44
2022-09-23T00:13:48.323Z,63.34
2022-09-23T00:14:48.398Z,63.34
2022-09-23T00:15:48.512Z,63.24
2022-09-23T00:16:48.627Z,63.13
2022-09-23T00:17:48.634Z,63.13
2022-09-23T00:18:48.716Z,63.13
2022-09-23T00:19:48.787Z,63.03
2022-09-23T00:20:48.868Z,63.03
2022-09-23T00:21:48.949Z,62.93
2022-09-23T00:22:49.032Z,63.03
2022-09-23T00:23:49.109Z,63.03
2022-09-23T00:24:49.193Z,63.03
2022-09-23T00:25:49.286Z,63.13
2022-09-23T00:26:49.380Z,63.13
2022-09-23T00:27:49.443Z,63.03
2022-09-23T00:28:49.538Z,63.03
2022-09-23T00:29:49.628Z,62.96
2022-09-23T00:30:49.775Z,62.96
2022-09-23T00:31:49.775Z,63.06
2022-09-23T00:32:49.844Z,63.06
2022-09-23T00:33:49.927Z,63.06
2022-09-23T00:34:50.025Z,63.17
2022-09-23T00:35:50.137Z,63.17
2022-09-23T00:36:50.207Z,63.17
2022-09-23T00:37:50.272Z,63.26
2022-09-23T00:38:50.336Z,63.26
2022-09-23T00:39:50.375Z,63.37
2022-09-23T00:40:50.594Z,63.37
2022-09-23T00:41:50.559Z,63.37
2022-09-23T00:42:50.676Z,63.37
2022-09-23T00:43:50.727Z,63.37
2022-09-23T00:44:50.822Z,63.37
2022-09-23T00:45:50.968Z,63.26
2022-09-23T00:46:51.026Z,63.26
2022-09-23T00:47:51.079Z,63.26
2022-09-23T00:48:51.151Z,63.37
2022-09-23T00:49:51.236Z,63.26
2022-09-23T00:50:51.347Z,63.29
2022-09-23T00:51:51.399Z,63.20
2022-09-23T00:52:51.496Z,63.09
2022-09-23T00:53:51.582Z,63.09
2022-09-23T00:54:51.652Z,63.20
2022-09-23T00:55:51.759Z,63.29
2022-09-23T00:56:51.836Z,63.29
2022-09-23T00:57:51.912Z,63.40
2022-09-23T00:58:51.976Z,63.50
2022-09-23T00:59:52.053Z,63.50
2022-09-23T01:00:52.325Z,63.50
2022-09-23T01:01:52.188Z,63.50
2022-09-23T01:02:52.346Z,63.50
2022-09-23T01:03:52.354Z,63.50
2022-09-23T01:04:52.446Z,63.60
2022-09-23T01:05:52.550Z,63.60
2022-09-23T01:06:52.598Z,63.70
2022-09-23T01:07:52.665Z,63.70
2022-09-23T01:08:52.737Z,63.81
2022-09-23T01:09:52.813Z,63.91
2022-09-23T01:10:52.942Z,63.91
2022-09-23T01:11:52.963Z,64.01
2022-09-23T01:12:53.045Z,64.01
2022-09-23T01:13:53.137Z,64.01
2022-09-23T01:14:53.207Z,64.01
2022-09-23T01:15:53.305Z,64.01
2022-09-23T01:16:53.467Z,63.91
2022-09-23T01:17:53.463Z,63.81
2022-09-23T01:18:53.564Z,63.70
2022-09-23T01:19:53.654Z,63.70
2022-09-23T01:20:53.753Z,63.81
2022-09-23T01:21:53.832Z,63.81
2022-09-23T01:22:54.026Z,63.91
2022-09-23T01:23:54.004Z,63.91
2022-09-23T01:24:54.123Z,63.91
2022-09-23T01:25:54.177Z,63.91
2022-09-23T01:26:54.265Z,63.91
2022-09-23T01:27:54.358Z,63.91
2022-09-23T01:28:54.444Z,63.91
2022-09-23T01:29:54.518Z,64.01
2022-09-23T01:30:54.647Z,64.01
2022-09-23T01:31:54.696Z,64.12
2022-09-23T01:32:54.774Z,64.12
2022-09-23T01:33:54.850Z,64.12
2022-09-23T01:34:54.945Z,64.12
2022-09-23T01:35:55.038Z,64.01
2022-09-23T01:36:55.108Z,64.01
2022-09-23T01:37:55.200Z,64.01
2022-09-23T01:38:55.306Z,63.91
2022-09-23T01:39:55.348Z,63.94
2022-09-23T01:40:55.480Z,63.94
2022-09-23T01:41:55.492Z,64.04
2022-09-23T01:42:55.595Z,64.04
2022-09-23T01:43:55.680Z,64.04
2022-09-23T01:44:55.765Z,63.94
2022-09-23T01:45:55.870Z,63.94
2022-09-23T01:46:55.917Z,64.04
2022-09-23T01:47:56.077Z,64.04
2022-09-23T01:48:56.082Z,64.04
2022-09-23T01:49:56.157Z,64.14
2022-09-23T01:50:56.293Z,64.14
2022-09-23T01:51:56.316Z,64.14
2022-09-23T01:52:56.416Z,64.25
2022-09-23T01:53:56.503Z,64.25
2022-09-23T01:54:56.590Z,64.35
2022-09-23T01:55:56.715Z,64.35
2022-09-23T01:56:56.749Z,64.45
2022-09-23T01:57:56.823Z,64.45
2022-09-23T01:58:56.912Z,64.56
2022-09-23T01:59:57.019Z,64.56
2022-09-23T02:00:57.119Z,64.45
2022-09-23T02:01:57.154Z,64.56
2022-09-23T02:02:57.229Z,64.56
2022-09-23T02:03:57.309Z,64.45
2022-09-23T02:04:57.387Z,64.45
2022-09-23T02:05:57.483Z,64.45
2022-09-23T02:06:57.542Z,64.56
2022-09-23T02:07:57.644Z,64.56
2022-09-23T02:08:57.722Z,64.65
2022-09-23T02:09:57.782Z,64.76
2022-09-23T02:10:57.920Z,64.76
2022-09-23T02:11:58.885Z,64.86
2022-09-23T02:12:58.030Z,64.89
2022-09-23T02:13:58.164Z,64.89
2022-09-23T02:14:58.237Z,65.00
2022-09-23T02:15:58.319Z,65.10
2022-09-23T02:16:58.507Z,65.10
2022-09-23T02:17:58.462Z,65.20
2022-09-23T02:18:58.550Z,65.30
2022-09-23T02:19:58.594Z,65.30
2022-09-23T02:20:58.674Z,65.41
2022-09-23T02:21:58.757Z,65.41
2022-09-23T02:22:58.831Z,65.51
2022-09-23T02:23:58.926Z,65.51
2022-09-23T02:24:58.981Z,65.61
2022-09-23T02:25:59.098Z,65.61
2022-09-23T02:26:59.171Z,65.61
2022-09-23T02:27:59.248Z,65.61
2022-09-23T02:28:59.428Z,65.61
2022-09-23T02:29:59.389Z,65.71
2022-09-23T02:30:59.491Z,65.71
2022-09-23T02:31:59.654Z,65.71
2022-09-23T02:32:59.662Z,65.74
2022-09-23T02:33:59.726Z,65.84
2022-09-23T02:34:59.838Z,65.84
2022-09-23T02:35:59.909Z,65.84
2022-09-23T02:37:00.009Z,65.95
2022-09-23T02:38:00.087Z,65.95
2022-09-23T02:39:00.145Z,66.05
2022-09-23T02:40:00.214Z,66.05
2022-09-23T02:41:00.297Z,65.95
2022-09-23T02:42:00.396Z,65.95
2022-09-23T02:43:00.408Z,65.95
2022-09-23T02:44:00.568Z,65.95
2022-09-23T02:45:00.602Z,65.84
2022-09-23T02:46:00.789Z,65.84
2022-09-23T02:47:00.798Z,65.84
2022-09-23T02:48:00.864Z,65.84
2022-09-23T02:49:00.934Z,65.95
2022-09-23T02:50:01.008Z,65.95
2022-09-23T02:51:01.097Z,65.95
2022-09-23T02:52:01.158Z,65.95
2022-09-23T02:53:01.260Z,66.05
2022-09-23T02:54:01.491Z,66.05
2022-09-23T02:55:01.397Z,66.16
2022-09-23T02:56:01.488Z,66.16
2022-09-23T02:57:01.577Z,66.25
2022-09-23T02:58:01.657Z,66.25
2022-09-23T02:59:01.746Z,66.25
2022-09-23T03:00:01.822Z,66.25
2022-09-23T03:01:02.009Z,66.36
2022-09-23T03:02:02.018Z,66.36
2022-09-23T03:03:02.046Z,66.25
2022-09-23T03:04:02.116Z,66.36
2022-09-23T03:05:02.190Z,66.46
2022-09-23T03:06:02.280Z,66.46
2022-09-23T03:07:02.349Z,66.46
2022-09-23T03:08:02.438Z,66.46
2022-09-23T03:09:02.601Z,66.46
2022-09-23T03:10:02.619Z,66.46
2022-09-23T03:11:02.711Z,66.36
2022-09-23T03:12:02.796Z,66.36
2022-09-23T03:13:02.851Z,66.36
2022-09-23T03:14:02.964Z,66.36
2022-09-23T03:15:03.063Z,66.36
2022-09-23T03:16:03.208Z,66.36
2022-09-23T03:17:03.190Z,66.36
2022-09-23T03:18:03.261Z,66.46
2022-09-23T03:19:03.356Z,66.46
2022-09-23T03:20:03.444Z,66.46
2022-09-23T03:21:03.558Z,66.46
2022-09-23T03:22:03.574Z,66.46
2022-09-23T03:23:03.690Z,66.46
2022-09-23T03:24:03.773Z,66.46
2022-09-23T03:25:03.848Z,66.46
2022-09-23T03:26:03.947Z,66.46
2022-09-23T03:27:04.015Z,66.36
2022-09-23T03:28:04.112Z,66.25
2022-09-23T03:29:04.218Z,66.36
2022-09-23T03:30:04.273Z,66.36
2022-09-23T03:31:04.357Z,66.36
2022-09-23T03:32:04.499Z,66.36
2022-09-23T03:33:04.540Z,66.36
2022-09-23T03:34:04.597Z,66.36
2022-09-23T03:35:04.713Z,66.25
2022-09-23T03:36:04.799Z,66.16
2022-09-23T03:37:04.843Z,66.05
2022-09-23T03:38:04.955Z,66.05
2022-09-23T03:39:05.045Z,65.95
2022-09-23T03:40:05.144Z,65.95
2022-09-23T03:41:05.251Z,65.84
2022-09-23T03:42:05.282Z,65.95
2022-09-23T03:43:05.341Z,65.95
2022-09-23T03:44:05.405Z,65.95
2022-09-23T03:45:05.476Z,65.95
2022-09-23T03:46:05.601Z,65.95
2022-09-23T03:47:05.622Z,65.95
2022-09-23T03:48:05.718Z,65.95
2022-09-23T03:49:05.752Z,66.05
2022-09-23T03:50:05.818Z,66.05
2022-09-23T03:51:05.932Z,65.95
2022-09-23T03:52:05.976Z,65.84
2022-09-23T03:53:06.011Z,65.84
2022-09-23T03:54:06.257Z,65.84
2022-09-23T03:55:06.157Z,65.84
2022-09-23T03:56:06.238Z,65.74
2022-09-23T03:57:06.314Z,65.74
2022-09-23T03:58:06.382Z,65.74
2022-09-23T03:59:06.449Z,65.74
2022-09-23T04:00:06.545Z,65.84
2022-09-23T04:01:06.697Z,65.74
2022-09-23T04:02:06.761Z,65.64
2022-09-23T04:03:11.401Z,65.64
2022-09-23T04:04:07.004Z,65.64
2022-09-23T04:05:06.942Z,65.74
2022-09-23T04:06:07.026Z,65.74
2022-09-23T04:07:07.083Z,65.74
2022-09-23T04:08:07.169Z,65.74
2022-09-23T04:09:07.270Z,65.74
2022-09-23T04:10:07.328Z,65.74
2022-09-23T04:11:07.458Z,65.64
2022-09-23T04:12:07.488Z,65.64
2022-09-23T04:13:07.571Z,65.64
2022-09-23T04:14:07.644Z,65.67
2022-09-23T04:15:07.719Z,65.67
2022-09-23T04:16:07.879Z,65.77
2022-09-23T04:17:07.907Z,65.77
2022-09-23T04:18:07.994Z,65.77
2022-09-23T04:19:11.424Z,65.77
2022-09-23T04:20:08.140Z,65.77
2022-09-23T04:21:08.230Z,65.77
2022-09-23T04:22:08.318Z,65.77
2022-09-23T04:23:08.403Z,65.77
2022-09-23T04:24:08.581Z,65.67
2022-09-23T04:25:08.580Z,65.67
2022-09-23T04:26:08.676Z,65.67
2022-09-23T04:27:08.754Z,65.67
2022-09-23T04:28:08.811Z,65.67
2022-09-23T04:29:08.900Z,65.77
2022-09-23T04:30:08.976Z,65.67
2022-09-23T04:31:09.094Z,65.67
2022-09-23T04:32:09.160Z,65.67
2022-09-23T04:33:09.266Z,65.77
2022-09-23T04:34:09.318Z,65.77
2022-09-23T04:35:09.411Z,65.77
2022-09-23T04:36:09.505Z,65.80
2022-09-23T04:37:09.566Z,65.80
2022-09-23T04:38:09.634Z,65.91
2022-09-23T04:39:09.771Z,65.80
2022-09-23T04:40:09.897Z,65.80
2022-09-23T04:41:09.878Z,65.80
2022-09-23T04:42:09.970Z,65.91
2022-09-23T04:43:13.485Z,65.91
2022-09-23T04:44:10.139Z,65.91
2022-09-23T04:45:10.204Z,65.91
2022-09-23T04:46:10.509Z,65.91
2022-09-23T04:47:10.335Z,65.91
2022-09-23T04:48:10.423Z,65.91
2022-09-23T04:49:10.593Z,65.80
2022-09-23T04:50:10.582Z,65.80
2022-09-23T04:51:10.689Z,65.80
2022-09-23T04:52:10.727Z,65.80
2022-09-23T04:53:10.804Z,65.91
2022-09-23T04:54:10.915Z,66.01
2022-09-23T04:55:11.398Z,66.11
2022-09-23T04:56:11.020Z,66.11
2022-09-23T04:57:11.147Z,66.11
2022-09-23T04:58:11.188Z,66.11
2022-09-23T04:59:11.392Z,66.11
2022-09-23T05:00:11.349Z,66.22
2022-09-23T05:01:11.515Z,66.22
2022-09-23T05:02:11.533Z,66.22
2022-09-23T05:03:11.567Z,66.22
2022-09-23T05:04:11.647Z,66.31
2022-09-23T05:05:11.704Z,66.42
2022-09-23T05:06:11.820Z,66.63
2022-09-23T05:07:11.892Z,66.73
2022-09-23T05:08:11.983Z,66.73
2022-09-23T05:09:12.095Z,66.83
2022-09-23T05:10:12.184Z,66.83
2022-09-23T05:11:12.211Z,66.83
2022-09-23T05:12:12.300Z,66.93
2022-09-23T05:13:12.366Z,67.03
2022-09-23T05:14:12.479Z,66.93
2022-09-23T05:15:12.580Z,67.03
2022-09-23T05:16:12.744Z,67.17
2022-09-23T05:17:12.782Z,67.17
2022-09-23T05:18:12.862Z,67.24
2022-09-23T05:19:12.921Z,67.24
2022-09-23T05:20:12.996Z,67.14
2022-09-23T05:21:13.063Z,67.14
2022-09-23T05:22:13.158Z,67.14
2022-09-23T05:23:13.237Z,67.14
2022-09-23T05:24:13.334Z,67.14
2022-09-23T05:25:13.405Z,67.03
2022-09-23T05:26:13.503Z,67.03
2022-09-23T05:27:13.584Z,67.14
2022-09-23T05:28:13.677Z,67.14
2022-09-23T05:29:13.754Z,67.03
2022-09-23T05:30:13.841Z,67.03
2022-09-23T05:31:19.336Z,67.03
2022-09-23T05:32:14.029Z,66.93
2022-09-23T05:33:14.052Z,66.93
2022-09-23T05:34:14.122Z,66.93
2022-09-23T05:35:14.223Z,66.93
2022-09-23T05:36:14.290Z,66.83
2022-09-23T05:37:14.409Z,66.96
2022-09-23T05:38:14.447Z,66.96
2022-09-23T05:39:14.520Z,66.96
2022-09-23T05:40:14.670Z,66.96
2022-09-23T05:41:14.680Z,66.86
2022-09-23T05:42:14.821Z,66.76
2022-09-23T05:43:14.886Z,66.86
2022-09-23T05:44:25.538Z,66.86
2022-09-23T05:45:15.041Z,66.86
2022-09-23T05:46:15.171Z,66.96
2022-09-23T05:47:15.231Z,67.07
2022-09-23T05:48:15.316Z,67.07
2022-09-23T05:49:15.396Z,67.07
2022-09-23T05:50:15.488Z,67.07
2022-09-23T05:51:15.582Z,67.17
2022-09-23T05:52:15.720Z,67.17
2022-09-23T05:53:15.786Z,67.27
2022-09-23T05:54:15.883Z,67.27
2022-09-23T05:55:15.974Z,67.27
2022-09-23T05:56:16.023Z,67.38
2022-09-23T05:57:16.114Z,67.38
2022-09-23T05:58:16.186Z,67.48
2022-09-23T05:59:16.256Z,67.48
2022-09-23T06:00:16.339Z,67.58
2022-09-23T06:01:16.421Z,67.58
2022-09-23T06:02:16.538Z,67.58
2022-09-23T06:03:16.645Z,67.58
2022-09-23T06:04:16.613Z,67.68
2022-09-23T06:05:16.688Z,67.89
2022-09-23T06:06:16.785Z,67.89
2022-09-23T06:07:16.870Z,67.99
2022-09-23T06:08:16.945Z,68.10
2022-09-23T06:09:17.018Z,68.10
2022-09-23T06:10:17.120Z,68.19
2022-09-23T06:11:17.195Z,68.19
2022-09-23T06:12:17.293Z,68.30
2022-09-23T06:13:17.348Z,68.30
2022-09-23T06:14:17.446Z,68.40
2022-09-23T06:15:17.540Z,68.51
2022-09-23T06:16:17.661Z,68.61
2022-09-23T06:17:17.717Z,68.61
2022-09-23T06:18:17.802Z,68.71
2022-09-23T06:19:17.871Z,68.71
2022-09-23T06:20:17.938Z,68.81
2022-09-23T06:21:18.007Z,68.78
2022-09-23T06:22:18.085Z,68.88
2022-09-23T06:23:18.450Z,68.88
2022-09-23T06:24:21.543Z,68.99
2022-09-23T06:25:18.331Z,69.09
2022-09-23T06:26:18.398Z,69.09
2022-09-23T06:27:18.479Z,69.19
2022-09-23T06:28:18.552Z,69.19
2022-09-23T06:29:18.643Z,69.19
2022-09-23T06:30:18.713Z,69.29
2022-09-23T06:31:18.861Z,69.40
2022-09-23T06:32:18.895Z,69.40
2022-09-23T06:33:31.246Z,69.50
2022-09-23T06:34:19.547Z,69.60
2022-09-23T06:35:26.088Z,69.60
2022-09-23T06:36:35.555Z,69.70
2022-09-23T06:37:20.617Z,69.81
2022-09-23T06:38:19.367Z,70.12
2022-09-23T06:39:19.486Z,70.42
2022-09-23T06:40:19.607Z,70.42
2022-09-23T06:41:19.603Z,70.42
2022-09-23T06:42:19.664Z,70.53
2022-09-23T06:43:19.764Z,70.63
2022-09-23T06:44:19.846Z,70.63
2022-09-23T06:45:19.933Z,70.73
2022-09-23T06:46:20.067Z,70.73
2022-09-23T06:47:20.144Z,70.73
2022-09-23T06:48:20.224Z,70.94
2022-09-23T06:49:20.315Z,71.04
2022-09-23T06:50:20.385Z,71.04
2022-09-23T06:51:20.483Z,71.04
2022-09-23T06:52:20.552Z,71.04
2022-09-23T06:53:20.625Z,71.11
2022-09-23T06:54:20.723Z,71.52
2022-09-23T06:55:20.807Z,71.62
2022-09-23T06:56:20.884Z,71.62
2022-09-23T06:57:20.953Z,71.52
2022-09-23T06:58:21.051Z,71.52
2022-09-23T06:59:21.149Z,71.52
2022-09-23T07:00:21.196Z,71.42
2022-09-23T07:01:21.351Z,71.52
2022-09-23T07:02:21.536Z,71.52
2022-09-23T07:03:21.455Z,71.62
2022-09-23T07:04:24.069Z,71.62
2022-09-23T07:05:21.617Z,71.72
2022-09-23T07:06:21.699Z,71.83
2022-09-23T07:07:21.788Z,71.83
2022-09-23T07:08:21.878Z,71.72
2022-09-23T07:09:21.975Z,71.72
2022-09-23T07:10:22.054Z,71.83
2022-09-23T07:11:22.124Z,71.80
2022-09-23T07:12:22.191Z,71.80
2022-09-23T07:13:22.268Z,72.10
2022-09-23T07:14:22.375Z,72.10
2022-09-23T07:15:22.410Z,72.20
2022-09-23T07:16:22.572Z,72.20
2022-09-23T07:17:22.564Z,72.20
2022-09-23T07:18:22.645Z,72.10
2022-09-23T07:19:22.727Z,72.10
2022-09-23T07:20:22.787Z,72.20
2022-09-23T07:21:22.863Z,72.10
2022-09-23T07:22:22.928Z,72.10
2022-09-23T07:23:23.011Z,72.20
2022-09-23T07:24:23.115Z,72.41
2022-09-23T07:25:23.202Z,72.41
2022-09-23T07:26:23.276Z,72.51
2022-09-23T07:27:23.362Z,72.51
2022-09-23T07:28:23.436Z,72.51
2022-09-23T07:29:23.562Z,72.51
2022-09-23T07:30:25.554Z,72.61
2022-09-23T07:31:35.631Z,72.58
2022-09-23T07:32:23.831Z,72.68
2022-09-23T07:33:31.690Z,72.68
2022-09-23T07:34:23.914Z,72.78
2022-09-23T07:35:23.998Z,72.78
2022-09-23T07:36:24.155Z,72.89
2022-09-23T07:37:24.145Z,72.89
2022-09-23T07:38:24.219Z,72.99
2022-09-23T07:39:24.316Z,73.10
2022-09-23T07:40:24.505Z,73.30
2022-09-23T07:41:24.452Z,73.30
2022-09-23T07:42:24.531Z,73.30
2022-09-23T07:43:24.599Z,73.30
2022-09-23T07:44:24.683Z,73.30
2022-09-23T07:45:24.769Z,73.47
2022-09-23T07:46:24.942Z,73.57
2022-09-23T07:47:24.952Z,73.68
2022-09-23T07:48:24.993Z,73.57
2022-09-23T07:49:25.093Z,73.57
2022-09-23T07:50:25.169Z,73.57
2022-09-23T07:51:25.246Z,73.68
2022-09-23T07:52:25.326Z,73.88
2022-09-23T07:53:25.446Z,73.88
2022-09-23T07:54:25.510Z,73.98
2022-09-23T07:55:25.595Z,74.08
2022-09-23T07:56:25.678Z,74.08
2022-09-23T07:57:25.750Z,74.05
2022-09-23T07:58:25.829Z,74.05
2022-09-23T07:59:25.988Z,74.05
2022-09-23T08:00:26.010Z,74.26
2022-09-23T08:01:26.266Z,74.26
2022-09-23T08:02:26.194Z,74.56
2022-09-23T08:03:26.271Z,74.56
2022-09-23T08:04:26.386Z,74.46
2022-09-23T08:05:26.450Z,74.46
2022-09-23T08:06:26.538Z,74.46
2022-09-23T08:07:26.620Z,74.46
2022-09-23T08:08:26.726Z,74.56
2022-09-23T08:09:26.830Z,74.87
2022-09-23T08:10:26.875Z,74.94
2022-09-23T08:11:26.976Z,74.94
2022-09-23T08:12:27.043Z,75.14
2022-09-23T08:13:27.134Z,75.24
2022-09-23T08:14:27.212Z,75.04
2022-09-23T08:15:27.424Z,74.94
2022-09-23T08:16:27.457Z,75.35
2022-09-23T08:17:27.457Z,75.96
2022-09-23T08:18:27.635Z,76.03
2022-09-23T08:19:27.645Z,75.82
2022-09-23T08:20:27.737Z,75.72
2022-09-23T08:21:27.823Z,75.72
2022-09-23T08:22:27.860Z,75.93
2022-09-23T08:23:27.958Z,76.13
2022-09-23T08:24:28.024Z,76.50
2022-09-23T08:25:28.966Z,76.61
2022-09-23T08:26:28.187Z,76.61
2022-09-23T08:27:28.376Z,76.20
2022-09-23T08:28:28.641Z,75.89
2022-09-23T08:29:28.397Z,75.68
2022-09-23T08:30:28.524Z,75.89
2022-09-23T08:31:28.612Z,76.16
2022-09-23T08:32:28.664Z,76.16
2022-09-23T08:33:28.715Z,76.26
2022-09-23T08:34:28.791Z,76.16
2022-09-23T08:35:28.889Z,75.96
2022-09-23T08:36:28.971Z,75.75
2022-09-23T08:37:29.010Z,75.96
2022-09-23T08:38:29.097Z,77.15
2022-09-23T08:39:29.158Z,76.94
2022-09-23T08:40:29.254Z,76.84
2022-09-23T08:41:29.341Z,76.64
2022-09-23T08:42:29.388Z,76.53
2022-09-23T08:43:29.498Z,77.11
2022-09-23T08:44:29.545Z,77.42
2022-09-23T08:45:29.623Z,78.03
2022-09-23T08:46:29.792Z,77.83
2022-09-23T08:47:29.788Z,77.59
2022-09-23T08:48:29.883Z,77.28
2022-09-23T08:49:29.962Z,76.87
2022-09-23T08:50:30.034Z,76.77
2022-09-23T08:51:30.145Z,76.87
2022-09-23T08:52:30.214Z,76.67
2022-09-23T08:53:30.249Z,76.97
2022-09-23T08:54:30.312Z,77.04
2022-09-23T08:55:30.415Z,77.65
2022-09-23T08:56:30.485Z,77.34
2022-09-23T08:57:30.567Z,77.55
2022-09-23T08:58:30.649Z,78.02
2022-09-23T08:59:30.739Z,78.23
2022-09-23T09:00:30.858Z,77.72
2022-09-23T09:01:30.984Z,77.27
2022-09-23T09:02:30.982Z,77.07
2022-09-23T09:03:31.026Z,76.66
2022-09-23T09:04:31.131Z,76.56
2022-09-23T09:05:31.225Z,76.35
2022-09-23T09:06:31.294Z,76.22
2022-09-23T09:07:36.759Z,76.22
2022-09-23T09:08:31.426Z,76.12
2022-09-23T09:09:31.502Z,73.57
2022-09-23T09:10:31.585Z,73.74
2022-09-23T09:11:31.687Z,73.64
2022-09-23T09:12:31.773Z,72.28
2022-09-23T09:13:31.805Z,71.77
2022-09-23T09:14:31.900Z,71.26
2022-09-23T09:15:32.022Z,70.41
2022-09-23T09:16:58.448Z,70.01
2022-09-23T09:17:34.997Z,69.40
2022-09-23T09:18:32.299Z,68.55
2022-09-23T09:19:32.355Z,67.94
2022-09-23T09:20:32.452Z,67.02
2022-09-23T09:21:32.600Z,66.58
2022-09-23T09:22:32.661Z,66.79
2022-09-23T09:23:32.650Z,65.44
2022-09-23T09:24:32.712Z,64.42
2022-09-23T09:25:34.287Z,65.03
2022-09-23T09:26:32.906Z,64.18
2022-09-23T09:27:32.989Z,64.18
2022-09-23T09:28:33.071Z,63.88
2022-09-23T09:29:35.726Z,63.24
2022-09-23T09:30:33.219Z,62.13
2022-09-23T09:31:33.408Z,62.53
2022-09-23T09:32:33.387Z,62.51
2022-09-23T09:33:33.449Z,62.51
2022-09-23T09:34:33.546Z,62.51
2022-09-23T09:35:33.623Z,61.46
2022-09-23T09:36:33.755Z,61.36
2022-09-23T09:37:33.779Z,61.46
2022-09-23T09:38:33.887Z,60.75
2022-09-23T09:39:33.913Z,60.35
2022-09-23T09:40:34.047Z,59.33
2022-09-23T09:41:34.095Z,59.61
2022-09-23T09:42:34.186Z,59.20
2022-09-23T09:43:34.285Z,59.20
2022-09-23T09:44:37.129Z,59.00
2022-09-23T09:45:34.444Z,59.20
2022-09-23T09:46:34.545Z,59.70
2022-09-23T09:47:34.625Z,58.90
2022-09-23T09:48:34.621Z,59.48
2022-09-23T09:49:40.176Z,59.27
2022-09-23T09:50:34.791Z,58.56
2022-09-23T09:51:34.890Z,58.97
2022-09-23T09:52:38.584Z,56.34
2022-09-23T09:53:35.021Z,56.74
2022-09-23T09:54:35.119Z,56.74
2022-09-23T09:55:35.201Z,56.61
2022-09-23T09:56:35.355Z,56.41
2022-09-23T09:57:36.211Z,56.61
2022-09-23T09:58:35.441Z,57.12
2022-09-23T09:59:35.532Z,56.92
2022-09-23T10:00:35.612Z,57.40
2022-09-23T10:01:35.799Z,57.29
2022-09-23T10:02:35.764Z,56.99
2022-09-23T10:03:35.851Z,56.18
2022-09-23T10:04:35.980Z,54.97
2022-09-23T10:05:36.023Z,54.86
2022-09-23T10:06:36.175Z,54.64
2022-09-23T10:07:36.216Z,55.35
2022-09-23T10:08:36.997Z,55.65
2022-09-23T10:09:36.419Z,55.24
2022-09-23T10:10:36.458Z,54.74
2022-09-23T10:11:36.562Z,55.62
2022-09-23T10:12:36.607Z,56.02
2022-09-23T10:13:36.689Z,55.93
2022-09-23T10:14:36.790Z,55.11
2022-09-23T10:15:39.306Z,54.82
2022-09-23T10:16:37.093Z,55.11
2022-09-23T10:17:37.043Z,55.82
2022-09-23T10:18:37.125Z,55.69
2022-09-23T10:19:37.213Z,55.69
2022-09-23T10:20:37.295Z,54.58
2022-09-23T10:21:37.412Z,54.89
2022-09-23T10:22:37.500Z,54.49
2022-09-23T10:23:37.554Z,54.38
2022-09-23T10:24:37.633Z,54.38
2022-09-23T10:25:37.723Z,53.98
2022-09-23T10:26:37.809Z,54.69
2022-09-23T10:27:37.887Z,55.60
2022-09-23T10:28:37.954Z,54.99
2022-09-23T10:29:38.031Z,55.60
2022-09-23T10:30:38.226Z,55.27
2022-09-23T10:31:38.199Z,54.36
2022-09-23T10:32:38.271Z,55.07
2022-09-23T10:33:38.341Z,55.77
2022-09-23T10:34:38.442Z,55.57
2022-09-23T10:35:38.516Z,55.67
2022-09-23T10:36:43.745Z,55.16
2022-09-23T10:37:38.663Z,55.54
2022-09-23T10:38:38.743Z,55.94
2022-09-23T10:39:38.876Z,56.15
2022-09-23T10:40:39.164Z,56.15
2022-09-23T10:41:39.050Z,56.45
2022-09-23T10:42:39.090Z,56.65
2022-09-23T10:43:39.167Z,55.54
2022-09-23T10:44:39.237Z,55.24
2022-09-23T10:45:41.194Z,54.63
2022-09-23T10:46:39.558Z,55.54
2022-09-23T10:47:39.515Z,56.05
2022-09-23T10:48:39.563Z,56.45
2022-09-23T10:49:39.658Z,56.76
2022-09-23T10:50:39.734Z,56.15
2022-09-23T10:51:39.825Z,55.85
2022-09-23T10:52:39.897Z,56.23
2022-09-23T10:53:39.976Z,55.52
2022-09-23T10:54:40.057Z,56.02
2022-09-23T10:55:40.136Z,56.02
2022-09-23T10:56:40.249Z,55.92
2022-09-23T10:57:40.298Z,56.32
2022-09-23T10:58:40.375Z,56.73
2022-09-23T10:59:40.457Z,55.92
2022-09-23T11:00:40.531Z,55.82
2022-09-23T11:01:40.699Z,55.09
2022-09-23T11:02:40.734Z,55.59
2022-09-23T11:03:40.807Z,55.90
2022-09-23T11:04:40.918Z,56.30
2022-09-23T11:05:40.935Z,56.30
2022-09-23T11:06:41.072Z,56.70
2022-09-23T11:07:41.115Z,55.79
2022-09-23T11:08:41.188Z,55.29
2022-09-23T11:09:41.267Z,53.38
2022-09-23T11:10:45.843Z,54.25
2022-09-23T11:11:41.475Z,54.86
2022-09-23T11:12:41.514Z,55.57
2022-09-23T11:13:41.583Z,54.76
2022-09-23T11:14:41.665Z,54.66
2022-09-23T11:15:41.748Z,54.16
2022-09-23T11:16:41.880Z,54.86
2022-09-23T11:17:41.889Z,55.57
2022-09-23T11:18:41.976Z,55.77
2022-09-23T11:19:45.414Z,55.77
2022-09-23T11:20:42.128Z,55.57
2022-09-23T11:21:42.231Z,55.46
2022-09-23T11:22:42.314Z,55.36
2022-09-23T11:23:42.391Z,55.46
2022-09-23T11:24:42.472Z,55.57
2022-09-23T11:25:42.546Z,55.16
2022-09-23T11:26:42.647Z,54.96
2022-09-23T11:27:42.736Z,55.46
2022-09-23T11:28:42.828Z,55.97
2022-09-23T11:29:42.923Z,56.17
2022-09-23T11:30:43.158Z,55.87
2022-09-23T11:31:43.124Z,55.97
2022-09-23T11:32:43.172Z,56.17
2022-09-23T11:33:43.264Z,55.97
2022-09-23T11:34:43.334Z,56.17
2022-09-23T11:35:43.464Z,55.99
2022-09-23T11:36:43.516Z,55.90
2022-09-23T11:37:43.589Z,55.59
2022-09-23T11:38:43.670Z,56.50
2022-09-23T11:39:43.752Z,56.40
2022-09-23T11:40:46.481Z,56.70
2022-09-23T11:41:43.923Z,56.81
2022-09-23T11:42:44.003Z,56.90
2022-09-23T11:43:44.087Z,56.07
2022-09-23T11:44:44.164Z,55.66
2022-09-23T11:45:44.328Z,55.57
2022-09-23T11:46:44.349Z,54.28
2022-09-23T11:47:44.419Z,55.16
2022-09-23T11:48:44.517Z,55.57
2022-09-23T11:49:44.570Z,55.16
2022-09-23T11:50:44.653Z,55.26
2022-09-23T11:51:44.739Z,56.07
2022-09-23T11:52:44.827Z,56.48
2022-09-23T11:53:44.895Z,56.68
2022-09-23T11:54:44.973Z,56.07
2022-09-23T11:55:55.160Z,54.66
2022-09-23T11:56:48.766Z,54.66
2022-09-23T11:57:49.242Z,54.25
2022-09-23T11:58:50.031Z,54.96
2022-09-23T11:59:45.422Z,55.46
2022-09-23T12:00:50.080Z,55.06
2022-09-23T12:01:45.920Z,54.76
2022-09-23T12:02:53.814Z,54.96
2022-09-23T12:03:45.917Z,55.84
2022-09-23T12:04:56.330Z,55.84
2022-09-23T12:05:46.055Z,55.94
2022-09-23T12:06:46.051Z,56.24
2022-09-23T12:07:46.086Z,56.75
2022-09-23T12:08:46.165Z,56.04
2022-09-23T12:09:58.078Z,56.55
2022-09-23T12:10:46.327Z,56.55
2022-09-23T12:11:46.418Z,56.55
2022-09-23T12:12:46.502Z,56.75
2022-09-23T12:13:46.582Z,56.65
2022-09-23T12:14:46.671Z,56.45
2022-09-23T12:15:46.751Z,56.35
2022-09-23T12:16:46.916Z,56.15
2022-09-23T12:17:46.937Z,55.94
2022-09-23T12:18:46.995Z,56.24
2022-09-23T12:19:47.064Z,55.84
2022-09-23T12:20:47.150Z,55.94
2022-09-23T12:21:50.714Z,55.84
2022-09-23T12:22:47.318Z,55.74
2022-09-23T12:23:47.424Z,55.82
2022-09-23T12:24:47.511Z,55.91
2022-09-23T12:25:47.590Z,55.94
2022-09-23T12:26:47.733Z,55.84
2022-09-23T12:27:47.774Z,55.74
2022-09-23T12:28:47.868Z,56.04
2022-09-23T12:29:47.967Z,56.04
2022-09-23T12:30:48.091Z,56.24
2022-09-23T12:31:48.160Z,56.75
2022-09-23T12:32:48.207Z,56.75
2022-09-23T12:33:48.341Z,56.75
2022-09-23T12:34:48.374Z,56.65
2022-09-23T12:35:48.440Z,55.64
2022-09-23T12:36:48.620Z,55.04
2022-09-23T12:37:48.611Z,55.44
2022-09-23T12:38:48.701Z,56.35
2022-09-23T12:39:48.796Z,56.75
2022-09-23T12:40:48.939Z,55.14
2022-09-23T12:41:49.010Z,55.74
2022-09-23T12:42:49.062Z,56.15
2022-09-23T12:43:49.144Z,55.84
2022-09-23T12:44:49.250Z,55.74
2022-09-23T12:45:49.362Z,55.54
2022-09-23T12:46:49.387Z,54.53
2022-09-23T12:47:49.471Z,54.71
2022-09-23T12:48:49.544Z,55.11
2022-09-23T12:49:49.625Z,54.61
2022-09-23T12:50:49.725Z,54.61
2022-09-23T12:51:49.847Z,55.41
2022-09-23T12:52:49.880Z,53.90
2022-09-23T12:53:49.947Z,53.80